sensor_id;sensor_type;location;lat;lon;timestamp;P1;durP1;ratioP1;P2;durP2;ratioP2
79348;SDS011;68817;48.110;11.660;2023-06-26T00:00:12;11.00;;;7.53;;
79348;SDS011;68817;48.110;11.660;2023-06-26T00:02:39;10.30;;;7.07;;
79348;SDS011;68817;48.110;11.660;2023-06-26T00:05:05;10.15;;;7.82;;
79348;SDS011;68817;48.110;11.660;2023-06-26T00:07:30;10.95;;;7.10;;
79348;SDS011;68817;48.110;11.660;2023-06-26T00:09:59;10.80;;;7.68;;
79348;SDS011;68817;48.110;11.660;2023-06-26T00:12:24;10.27;;;6.72;;
79348;SDS011;68817;48.110;11.660;2023-06-26T00:14:50;11.25;;;7.40;;
79348;SDS011;68817;48.110;11.660;2023-06-26T00:17:15;8.82;;;6.40;;
79348;SDS011;68817;48.110;11.660;2023-06-26T00:19:41;9.13;;;6.57;;
79348;SDS011;68817;48.110;11.660;2023-06-26T00:22:09;10.43;;;7.20;;
79348;SDS011;68817;48.110;11.660;2023-06-26T00:24:34;11.05;;;7.13;;
79348;SDS011;68817;48.110;11.660;2023-06-26T00:27:00;7.70;;;6.43;;
79348;SDS011;68817;48.110;11.660;2023-06-26T00:29:25;8.90;;;6.82;;
79348;SDS011;68817;48.110;11.660;2023-06-26T00:31:51;12.02;;;7.57;;
79348;SDS011;68817;48.110;11.660;2023-06-26T00:34:16;9.70;;;6.20;;
79348;SDS011;68817;48.110;11.660;2023-06-26T00:36:41;10.65;;;6.93;;
79348;SDS011;68817;48.110;11.660;2023-06-26T00:39:10;7.72;;;6.43;;
79348;SDS011;68817;48.110;11.660;2023-06-26T00:41:36;8.98;;;6.25;;
79348;SDS011;68817;48.110;11.660;2023-06-26T00:44:03;8.20;;;6.40;;
79348;SDS011;68817;48.110;11.660;2023-06-26T00:46:29;10.07;;;6.70;;
79348;SDS011;68817;48.110;11.660;2023-06-26T00:48:54;8.68;;;6.20;;
79348;SDS011;68817;48.110;11.660;2023-06-26T00:51:21;8.68;;;6.28;;
79348;SDS011;68817;48.110;11.660;2023-06-26T00:53:47;8.90;;;6.50;;
79348;SDS011;68817;48.110;11.660;2023-06-26T00:56:13;9.80;;;6.60;;
79348;SDS011;68817;48.110;11.660;2023-06-26T00:58:39;7.95;;;6.03;;
79348;SDS011;68817;48.110;11.660;2023-06-26T01:01:04;9.93;;;6.35;;
79348;SDS011;68817;48.110;11.660;2023-06-26T01:03:33;11.10;;;6.38;;
79348;SDS011;68817;48.110;11.660;2023-06-26T01:05:59;7.68;;;6.10;;
79348;SDS011;68817;48.110;11.660;2023-06-26T01:08:25;8.40;;;6.25;;
79348;SDS011;68817;48.110;11.660;2023-06-26T01:10:51;7.47;;;5.90;;
79348;SDS011;68817;48.110;11.660;2023-06-26T01:13:16;8.30;;;6.45;;
79348;SDS011;68817;48.110;11.660;2023-06-26T01:15:42;9.70;;;6.40;;
79348;SDS011;68817;48.110;11.660;2023-06-26T01:18:07;8.55;;;6.57;;
79348;SDS011;68817;48.110;11.660;2023-06-26T01:20:37;7.72;;;6.40;;
79348;SDS011;68817;48.110;11.660;2023-06-26T01:28:41;9.25;;;6.47;;
79348;SDS011;68817;48.110;11.660;2023-06-26T01:31:07;8.05;;;5.72;;
79348;SDS011;68817;48.110;11.660;2023-06-26T01:33:33;9.85;;;6.65;;
79348;SDS011;68817;48.110;11.660;2023-06-26T01:36:00;8.00;;;5.63;;
79348;SDS011;68817;48.110;11.660;2023-06-26T01:38:26;8.38;;;6.30;;
79348;SDS011;68817;48.110;11.660;2023-06-26T01:40:52;9.50;;;6.28;;
79348;SDS011;68817;48.110;11.660;2023-06-26T01:46:17;7.60;;;5.57;;
79348;SDS011;68817;48.110;11.660;2023-06-26T01:51:23;11.00;;;5.88;;
79348;SDS011;68817;48.110;11.660;2023-06-26T01:53:54;8.13;;;5.90;;
79348;SDS011;68817;48.110;11.660;2023-06-26T01:56:22;8.43;;;6.65;;
79348;SDS011;68817;48.110;11.660;2023-06-26T01:58:48;8.38;;;5.30;;
79348;SDS011;68817;48.110;11.660;2023-06-26T02:01:15;9.43;;;5.85;;
79348;SDS011;68817;48.110;11.660;2023-06-26T02:03:40;7.90;;;5.65;;
79348;SDS011;68817;48.110;11.660;2023-06-26T02:06:06;8.93;;;6.15;;
79348;SDS011;68817;48.110;11.660;2023-06-26T02:08:32;7.80;;;5.88;;
79348;SDS011;68817;48.110;11.660;2023-06-26T02:10:57;9.15;;;6.13;;
79348;SDS011;68817;48.110;11.660;2023-06-26T02:13:22;8.85;;;5.88;;
79348;SDS011;68817;48.110;11.660;2023-06-26T02:15:48;9.00;;;6.07;;
79348;SDS011;68817;48.110;11.660;2023-06-26T02:18:13;8.60;;;6.10;;
79348;SDS011;68817;48.110;11.660;2023-06-26T02:20:39;7.43;;;5.88;;
79348;SDS011;68817;48.110;11.660;2023-06-26T02:23:05;8.85;;;5.63;;
79348;SDS011;68817;48.110;11.660;2023-06-26T02:25:30;9.02;;;6.30;;
79348;SDS011;68817;48.110;11.660;2023-06-26T02:27:55;8.07;;;5.60;;
79348;SDS011;68817;48.110;11.660;2023-06-26T02:30:21;9.23;;;6.47;;
79348;SDS011;68817;48.110;11.660;2023-06-26T02:32:46;7.53;;;5.63;;
79348;SDS011;68817;48.110;11.660;2023-06-26T02:35:12;9.35;;;6.03;;
79348;SDS011;68817;48.110;11.660;2023-06-26T02:37:40;8.15;;;5.85;;
79348;SDS011;68817;48.110;11.660;2023-06-26T02:40:06;8.25;;;5.53;;
79348;SDS011;68817;48.110;11.660;2023-06-26T02:42:34;8.32;;;6.07;;
79348;SDS011;68817;48.110;11.660;2023-06-26T02:45:00;9.43;;;6.50;;
79348;SDS011;68817;48.110;11.660;2023-06-26T02:47:27;9.05;;;5.93;;
79348;SDS011;68817;48.110;11.660;2023-06-26T02:49:52;8.80;;;6.28;;
79348;SDS011;68817;48.110;11.660;2023-06-26T02:52:17;8.07;;;5.97;;
79348;SDS011;68817;48.110;11.660;2023-06-26T02:54:44;7.82;;;5.85;;
79348;SDS011;68817;48.110;11.660;2023-06-26T02:57:11;9.32;;;6.10;;
79348;SDS011;68817;48.110;11.660;2023-06-26T02:59:40;8.30;;;5.90;;
79348;SDS011;68817;48.110;11.660;2023-06-26T03:02:06;9.10;;;6.30;;
79348;SDS011;68817;48.110;11.660;2023-06-26T03:04:41;7.60;;;5.90;;
79348;SDS011;68817;48.110;11.660;2023-06-26T03:07:10;9.20;;;6.03;;
79348;SDS011;68817;48.110;11.660;2023-06-26T03:09:37;8.45;;;6.28;;
79348;SDS011;68817;48.110;11.660;2023-06-26T03:12:02;7.90;;;6.30;;
79348;SDS011;68817;48.110;11.660;2023-06-26T03:14:28;8.35;;;6.00;;
79348;SDS011;68817;48.110;11.660;2023-06-26T03:16:55;8.57;;;6.28;;
79348;SDS011;68817;48.110;11.660;2023-06-26T03:19:24;7.50;;;5.65;;
79348;SDS011;68817;48.110;11.660;2023-06-26T03:22:09;9.32;;;5.72;;
79348;SDS011;68817;48.110;11.660;2023-06-26T03:24:34;10.45;;;6.10;;
79348;SDS011;68817;48.110;11.660;2023-06-26T03:27:00;9.15;;;5.78;;
79348;SDS011;68817;48.110;11.660;2023-06-26T03:29:25;9.25;;;5.80;;
79348;SDS011;68817;48.110;11.660;2023-06-26T03:31:51;9.60;;;6.40;;
79348;SDS011;68817;48.110;11.660;2023-06-26T03:34:16;8.13;;;6.03;;
79348;SDS011;68817;48.110;11.660;2023-06-26T03:36:42;8.40;;;6.18;;
79348;SDS011;68817;48.110;11.660;2023-06-26T03:39:07;8.20;;;5.70;;
79348;SDS011;68817;48.110;11.660;2023-06-26T03:41:34;9.20;;;6.50;;
79348;SDS011;68817;48.110;11.660;2023-06-26T03:44:00;7.35;;;5.82;;
79348;SDS011;68817;48.110;11.660;2023-06-26T03:46:31;9.25;;;5.85;;
79348;SDS011;68817;48.110;11.660;2023-06-26T03:48:56;10.65;;;6.05;;
79348;SDS011;68817;48.110;11.660;2023-06-26T03:51:22;8.38;;;5.90;;
79348;SDS011;68817;48.110;11.660;2023-06-26T03:53:47;8.63;;;6.07;;
79348;SDS011;68817;48.110;11.660;2023-06-26T03:56:13;8.50;;;6.00;;
79348;SDS011;68817;48.110;11.660;2023-06-26T03:58:39;8.57;;;5.28;;
79348;SDS011;68817;48.110;11.660;2023-06-26T04:01:04;7.82;;;5.45;;
79348;SDS011;68817;48.110;11.660;2023-06-26T04:03:30;8.20;;;6.22;;
79348;SDS011;68817;48.110;11.660;2023-06-26T04:05:56;7.88;;;5.45;;
79348;SDS011;68817;48.110;11.660;2023-06-26T04:08:23;9.27;;;5.90;;
79348;SDS011;68817;48.110;11.660;2023-06-26T04:10:50;8.52;;;6.10;;
79348;SDS011;68817;48.110;11.660;2023-06-26T04:13:17;8.77;;;5.95;;
79348;SDS011;68817;48.110;11.660;2023-06-26T04:15:42;9.95;;;6.28;;
79348;SDS011;68817;48.110;11.660;2023-06-26T04:18:07;10.00;;;6.55;;
79348;SDS011;68817;48.110;11.660;2023-06-26T04:20:37;7.22;;;5.40;;
79348;SDS011;68817;48.110;11.660;2023-06-26T04:23:04;9.52;;;6.53;;
79348;SDS011;68817;48.110;11.660;2023-06-26T04:25:29;8.48;;;5.78;;
79348;SDS011;68817;48.110;11.660;2023-06-26T04:27:55;8.75;;;6.00;;
79348;SDS011;68817;48.110;11.660;2023-06-26T04:30:20;8.90;;;6.38;;
79348;SDS011;68817;48.110;11.660;2023-06-26T04:32:46;9.85;;;6.47;;
79348;SDS011;68817;48.110;11.660;2023-06-26T04:35:11;8.50;;;6.10;;
79348;SDS011;68817;48.110;11.660;2023-06-26T04:37:36;11.30;;;7.32;;
79348;SDS011;68817;48.110;11.660;2023-06-26T04:40:03;8.23;;;5.43;;
79348;SDS011;68817;48.110;11.660;2023-06-26T04:42:30;10.40;;;6.95;;
79348;SDS011;68817;48.110;11.660;2023-06-26T04:44:55;9.85;;;6.38;;
79348;SDS011;68817;48.110;11.660;2023-06-26T04:47:21;8.63;;;6.32;;
79348;SDS011;68817;48.110;11.660;2023-06-26T04:49:46;7.55;;;5.50;;
79348;SDS011;68817;48.110;11.660;2023-06-26T04:52:12;7.95;;;5.90;;
79348;SDS011;68817;48.110;11.660;2023-06-26T04:54:40;8.05;;;6.05;;
79348;SDS011;68817;48.110;11.660;2023-06-26T04:57:06;9.88;;;6.20;;
79348;SDS011;68817;48.110;11.660;2023-06-26T04:59:31;8.05;;;6.13;;
79348;SDS011;68817;48.110;11.660;2023-06-26T05:01:57;9.77;;;6.10;;
79348;SDS011;68817;48.110;11.660;2023-06-26T05:04:22;10.20;;;6.40;;
79348;SDS011;68817;48.110;11.660;2023-06-26T05:06:48;10.35;;;6.72;;
79348;SDS011;68817;48.110;11.660;2023-06-26T05:09:13;9.43;;;5.97;;
79348;SDS011;68817;48.110;11.660;2023-06-26T05:11:39;9.95;;;6.15;;
79348;SDS011;68817;48.110;11.660;2023-06-26T05:14:04;8.18;;;5.50;;
79348;SDS011;68817;48.110;11.660;2023-06-26T05:16:32;8.38;;;5.95;;
79348;SDS011;68817;48.110;11.660;2023-06-26T05:18:58;8.93;;;6.30;;
79348;SDS011;68817;48.110;11.660;2023-06-26T05:21:24;9.55;;;6.45;;
79348;SDS011;68817;48.110;11.660;2023-06-26T05:23:49;8.70;;;6.43;;
79348;SDS011;68817;48.110;11.660;2023-06-26T05:26:16;9.65;;;6.20;;
79348;SDS011;68817;48.110;11.660;2023-06-26T05:28:43;8.93;;;6.35;;
79348;SDS011;68817;48.110;11.660;2023-06-26T05:31:13;12.65;;;5.97;;
79348;SDS011;68817;48.110;11.660;2023-06-26T05:33:39;9.25;;;5.63;;
79348;SDS011;68817;48.110;11.660;2023-06-26T05:36:08;8.85;;;5.90;;
79348;SDS011;68817;48.110;11.660;2023-06-26T05:38:34;8.75;;;6.13;;
79348;SDS011;68817;48.110;11.660;2023-06-26T05:41:00;8.98;;;6.60;;
79348;SDS011;68817;48.110;11.660;2023-06-26T05:43:25;10.60;;;7.10;;
79348;SDS011;68817;48.110;11.660;2023-06-26T05:45:51;8.98;;;6.45;;
79348;SDS011;68817;48.110;11.660;2023-06-26T05:48:16;9.27;;;6.18;;
79348;SDS011;68817;48.110;11.660;2023-06-26T05:50:42;8.55;;;6.43;;
79348;SDS011;68817;48.110;11.660;2023-06-26T05:53:09;8.02;;;6.20;;
79348;SDS011;68817;48.110;11.660;2023-06-26T05:55:34;10.10;;;6.32;;
79348;SDS011;68817;48.110;11.660;2023-06-26T05:58:01;10.15;;;6.55;;
79348;SDS011;68817;48.110;11.660;2023-06-26T06:00:27;8.52;;;6.15;;
79348;SDS011;68817;48.110;11.660;2023-06-26T06:02:53;9.20;;;6.55;;
79348;SDS011;68817;48.110;11.660;2023-06-26T06:05:22;8.70;;;5.43;;
79348;SDS011;68817;48.110;11.660;2023-06-26T06:07:48;8.63;;;6.22;;
79348;SDS011;68817;48.110;11.660;2023-06-26T06:10:13;9.18;;;6.15;;
79348;SDS011;68817;48.110;11.660;2023-06-26T06:12:38;8.98;;;6.53;;
79348;SDS011;68817;48.110;11.660;2023-06-26T06:15:04;10.15;;;7.20;;
79348;SDS011;68817;48.110;11.660;2023-06-26T06:17:30;9.57;;;7.00;;
79348;SDS011;68817;48.110;11.660;2023-06-26T06:19:56;9.45;;;6.47;;
79348;SDS011;68817;48.110;11.660;2023-06-26T06:22:21;9.75;;;6.43;;
79348;SDS011;68817;48.110;11.660;2023-06-26T06:24:48;10.68;;;6.38;;
79348;SDS011;68817;48.110;11.660;2023-06-26T06:27:13;7.93;;;5.97;;
79348;SDS011;68817;48.110;11.660;2023-06-26T06:29:39;8.32;;;6.28;;
79348;SDS011;68817;48.110;11.660;2023-06-26T06:32:05;7.88;;;6.53;;
79348;SDS011;68817;48.110;11.660;2023-06-26T06:34:31;8.02;;;5.97;;
79348;SDS011;68817;48.110;11.660;2023-06-26T06:36:56;9.18;;;6.22;;
79348;SDS011;68817;48.110;11.660;2023-06-26T06:39:22;7.47;;;5.85;;
79348;SDS011;68817;48.110;11.660;2023-06-26T06:41:47;8.25;;;5.65;;
79348;SDS011;68817;48.110;11.660;2023-06-26T06:44:13;7.60;;;5.55;;
79348;SDS011;68817;48.110;11.660;2023-06-26T06:46:38;6.95;;;5.68;;
79348;SDS011;68817;48.110;11.660;2023-06-26T06:49:03;8.80;;;6.10;;
79348;SDS011;68817;48.110;11.660;2023-06-26T06:51:29;7.95;;;6.07;;
79348;SDS011;68817;48.110;11.660;2023-06-26T06:53:54;8.82;;;5.88;;
79348;SDS011;68817;48.110;11.660;2023-06-26T06:56:20;7.53;;;6.15;;
79348;SDS011;68817;48.110;11.660;2023-06-26T06:58:45;8.18;;;6.07;;
79348;SDS011;68817;48.110;11.660;2023-06-26T07:01:14;7.30;;;6.07;;
79348;SDS011;68817;48.110;11.660;2023-06-26T07:03:40;6.75;;;6.07;;
79348;SDS011;68817;48.110;11.660;2023-06-26T07:06:05;6.78;;;5.95;;
79348;SDS011;68817;48.110;11.660;2023-06-26T07:08:31;7.00;;;6.30;;
79348;SDS011;68817;48.110;11.660;2023-06-26T07:10:56;6.45;;;5.80;;
79348;SDS011;68817;48.110;11.660;2023-06-26T07:13:22;7.03;;;6.32;;
79348;SDS011;68817;48.110;11.660;2023-06-26T07:15:48;7.60;;;5.93;;
79348;SDS011;68817;48.110;11.660;2023-06-26T07:18:13;7.80;;;6.15;;
79348;SDS011;68817;48.110;11.660;2023-06-26T07:20:39;6.50;;;5.88;;
79348;SDS011;68817;48.110;11.660;2023-06-26T07:23:05;7.60;;;5.90;;
79348;SDS011;68817;48.110;11.660;2023-06-26T07:25:30;6.28;;;5.65;;
79348;SDS011;68817;48.110;11.660;2023-06-26T07:27:55;5.95;;;5.22;;
79348;SDS011;68817;48.110;11.660;2023-06-26T07:30:21;6.72;;;6.03;;
79348;SDS011;68817;48.110;11.660;2023-06-26T07:32:46;6.22;;;5.65;;
79348;SDS011;68817;48.110;11.660;2023-06-26T07:35:12;6.93;;;6.10;;
79348;SDS011;68817;48.110;11.660;2023-06-26T07:37:37;6.50;;;5.57;;
79348;SDS011;68817;48.110;11.660;2023-06-26T07:40:03;6.30;;;5.25;;
79348;SDS011;68817;48.110;11.660;2023-06-26T07:42:29;6.47;;;5.78;;
79348;SDS011;68817;48.110;11.660;2023-06-26T07:44:54;6.15;;;4.85;;
79348;SDS011;68817;48.110;11.660;2023-06-26T07:47:19;6.05;;;5.38;;
79348;SDS011;68817;48.110;11.660;2023-06-26T07:49:45;7.10;;;5.65;;
79348;SDS011;68817;48.110;11.660;2023-06-26T07:52:10;6.22;;;5.63;;
79348;SDS011;68817;48.110;11.660;2023-06-26T07:54:36;6.03;;;5.53;;
79348;SDS011;68817;48.110;11.660;2023-06-26T07:57:02;6.40;;;5.80;;
79348;SDS011;68817;48.110;11.660;2023-06-26T07:59:30;6.50;;;5.78;;
79348;SDS011;68817;48.110;11.660;2023-06-26T08:01:56;6.88;;;5.47;;
79348;SDS011;68817;48.110;11.660;2023-06-26T08:04:23;7.20;;;5.75;;
79348;SDS011;68817;48.110;11.660;2023-06-26T08:06:53;6.47;;;5.85;;
79348;SDS011;68817;48.110;11.660;2023-06-26T08:09:20;6.35;;;5.63;;
79348;SDS011;68817;48.110;11.660;2023-06-26T08:11:46;6.55;;;5.88;;
79348;SDS011;68817;48.110;11.660;2023-06-26T08:14:12;8.18;;;5.85;;
79348;SDS011;68817;48.110;11.660;2023-06-26T08:16:40;5.65;;;5.05;;
79348;SDS011;68817;48.110;11.660;2023-06-26T08:19:05;6.30;;;5.70;;
79348;SDS011;68817;48.110;11.660;2023-06-26T08:21:31;5.93;;;5.32;;
79348;SDS011;68817;48.110;11.660;2023-06-26T08:23:56;6.70;;;5.43;;
79348;SDS011;68817;48.110;11.660;2023-06-26T08:26:22;5.47;;;4.60;;
79348;SDS011;68817;48.110;11.660;2023-06-26T08:28:48;5.75;;;5.07;;
79348;SDS011;68817;48.110;11.660;2023-06-26T08:31:13;6.75;;;5.85;;
79348;SDS011;68817;48.110;11.660;2023-06-26T08:33:39;7.35;;;5.95;;
79348;SDS011;68817;48.110;11.660;2023-06-26T08:36:04;6.20;;;5.43;;
79348;SDS011;68817;48.110;11.660;2023-06-26T08:38:29;6.20;;;5.18;;
79348;SDS011;68817;48.110;11.660;2023-06-26T08:40:55;6.40;;;5.80;;
79348;SDS011;68817;48.110;11.660;2023-06-26T08:43:20;6.20;;;5.60;;
79348;SDS011;68817;48.110;11.660;2023-06-26T08:45:47;5.75;;;5.25;;
79348;SDS011;68817;48.110;11.660;2023-06-26T08:48:16;6.47;;;5.70;;
79348;SDS011;68817;48.110;11.660;2023-06-26T08:50:42;5.60;;;5.07;;
79348;SDS011;68817;48.110;11.660;2023-06-26T08:58:22;5.32;;;4.82;;
79348;SDS011;68817;48.110;11.660;2023-06-26T09:00:47;6.22;;;5.63;;
79348;SDS011;68817;48.110;11.660;2023-06-26T09:03:14;7.57;;;5.13;;
79348;SDS011;68817;48.110;11.660;2023-06-26T09:05:40;6.00;;;5.25;;
79348;SDS011;68817;48.110;11.660;2023-06-26T09:08:06;6.38;;;5.38;;
79348;SDS011;68817;48.110;11.660;2023-06-26T09:10:32;10.77;;;5.43;;
79348;SDS011;68817;48.110;11.660;2023-06-26T09:12:57;6.15;;;5.55;;
79348;SDS011;68817;48.110;11.660;2023-06-26T09:15:23;6.90;;;5.88;;
79348;SDS011;68817;48.110;11.660;2023-06-26T09:17:49;5.90;;;5.30;;
79348;SDS011;68817;48.110;11.660;2023-06-26T09:20:15;6.45;;;5.32;;
79348;SDS011;68817;48.110;11.660;2023-06-26T09:22:41;6.20;;;5.60;;
79348;SDS011;68817;48.110;11.660;2023-06-26T09:25:08;5.80;;;5.30;;
79348;SDS011;68817;48.110;11.660;2023-06-26T09:27:34;7.43;;;4.88;;
79348;SDS011;68817;48.110;11.660;2023-06-26T09:30:01;5.32;;;4.82;;
79348;SDS011;68817;48.110;11.660;2023-06-26T09:32:28;6.20;;;5.60;;
79348;SDS011;68817;48.110;11.660;2023-06-26T09:34:54;5.28;;;4.78;;
79348;SDS011;68817;48.110;11.660;2023-06-26T09:37:22;6.20;;;5.00;;
79348;SDS011;68817;48.110;11.660;2023-06-26T09:39:50;6.53;;;5.07;;
79348;SDS011;68817;48.110;11.660;2023-06-26T09:42:15;6.53;;;5.70;;
79348;SDS011;68817;48.110;11.660;2023-06-26T09:44:44;6.10;;;5.50;;
79348;SDS011;68817;48.110;11.660;2023-06-26T09:47:10;6.93;;;5.55;;
79348;SDS011;68817;48.110;11.660;2023-06-26T09:49:36;5.82;;;5.20;;
79348;SDS011;68817;48.110;11.660;2023-06-26T09:52:01;7.05;;;5.65;;
79348;SDS011;68817;48.110;11.660;2023-06-26T09:54:27;5.63;;;5.13;;
79348;SDS011;68817;48.110;11.660;2023-06-26T09:56:55;8.63;;;4.78;;
79348;SDS011;68817;48.110;11.660;2023-06-26T09:59:29;6.57;;;4.97;;
79348;SDS011;68817;48.110;11.660;2023-06-26T10:01:58;9.40;;;6.07;;
79348;SDS011;68817;48.110;11.660;2023-06-26T10:04:24;9.32;;;5.57;;
79348;SDS011;68817;48.110;11.660;2023-06-26T10:06:50;5.95;;;5.20;;
79348;SDS011;68817;48.110;11.660;2023-06-26T10:09:17;5.50;;;4.38;;
79348;SDS011;68817;48.110;11.660;2023-06-26T10:11:53;8.77;;;4.90;;
79348;SDS011;68817;48.110;11.660;2023-06-26T10:14:22;4.80;;;4.03;;
79348;SDS011;68817;48.110;11.660;2023-06-26T10:16:51;5.50;;;4.10;;
79348;SDS011;68817;48.110;11.660;2023-06-26T10:19:18;4.47;;;4.05;;
79348;SDS011;68817;48.110;11.660;2023-06-26T10:21:50;4.72;;;4.32;;
79348;SDS011;68817;48.110;11.660;2023-06-26T10:24:17;4.95;;;4.13;;
79348;SDS011;68817;48.110;11.660;2023-06-26T10:26:44;5.80;;;4.60;;
79348;SDS011;68817;48.110;11.660;2023-06-26T10:29:10;5.50;;;4.47;;
79348;SDS011;68817;48.110;11.660;2023-06-26T10:31:37;6.80;;;4.47;;
79348;SDS011;68817;48.110;11.660;2023-06-26T10:34:03;4.45;;;4.05;;
79348;SDS011;68817;48.110;11.660;2023-06-26T10:36:30;4.80;;;4.40;;
79348;SDS011;68817;48.110;11.660;2023-06-26T10:38:57;4.85;;;4.30;;
79348;SDS011;68817;48.110;11.660;2023-06-26T10:41:23;6.40;;;4.25;;
79348;SDS011;68817;48.110;11.660;2023-06-26T10:46:24;4.05;;;3.55;;
79348;SDS011;68817;48.110;11.660;2023-06-26T10:48:59;5.40;;;4.07;;
79348;SDS011;68817;48.110;11.660;2023-06-26T10:51:26;4.35;;;3.90;;
79348;SDS011;68817;48.110;11.660;2023-06-26T10:53:58;5.38;;;4.13;;
79348;SDS011;68817;48.110;11.660;2023-06-26T11:01:44;4.97;;;3.95;;
79348;SDS011;68817;48.110;11.660;2023-06-26T11:04:11;5.32;;;4.82;;
79348;SDS011;68817;48.110;11.660;2023-06-26T11:06:39;4.85;;;4.00;;
79348;SDS011;68817;48.110;11.660;2023-06-26T11:14:21;4.70;;;4.30;;
79348;SDS011;68817;48.110;11.660;2023-06-26T11:16:47;4.32;;;3.92;;
79348;SDS011;68817;48.110;11.660;2023-06-26T11:19:14;5.15;;;4.00;;
79348;SDS011;68817;48.110;11.660;2023-06-26T11:21:41;5.00;;;4.45;;
79348;SDS011;68817;48.110;11.660;2023-06-26T11:24:07;4.47;;;4.05;;
79348;SDS011;68817;48.110;11.660;2023-06-26T11:29:05;5.15;;;4.10;;
79348;SDS011;68817;48.110;11.660;2023-06-26T11:31:31;6.00;;;4.38;;
79348;SDS011;68817;48.110;11.660;2023-06-26T11:34:04;5.45;;;4.72;;
79348;SDS011;68817;48.110;11.660;2023-06-26T11:36:31;4.68;;;4.13;;
79348;SDS011;68817;48.110;11.660;2023-06-26T11:38:58;4.65;;;4.25;;
79348;SDS011;68817;48.110;11.660;2023-06-26T11:41:25;4.95;;;3.97;;
79348;SDS011;68817;48.110;11.660;2023-06-26T11:43:51;7.97;;;4.75;;
79348;SDS011;68817;48.110;11.660;2023-06-26T11:46:18;6.18;;;4.30;;
79348;SDS011;68817;48.110;11.660;2023-06-26T11:48:44;4.97;;;4.40;;
79348;SDS011;68817;48.110;11.660;2023-06-26T11:51:12;5.03;;;4.53;;
79348;SDS011;68817;48.110;11.660;2023-06-26T11:53:39;5.03;;;4.53;;
79348;SDS011;68817;48.110;11.660;2023-06-26T11:56:09;6.20;;;4.50;;
79348;SDS011;68817;48.110;11.660;2023-06-26T12:04:07;5.75;;;5.20;;
79348;SDS011;68817;48.110;11.660;2023-06-26T12:06:34;5.60;;;4.68;;
79348;SDS011;68817;48.110;11.660;2023-06-26T12:09:01;6.28;;;5.00;;
79348;SDS011;68817;48.110;11.660;2023-06-26T12:11:30;5.82;;;5.20;;
79348;SDS011;68817;48.110;11.660;2023-06-26T12:13:57;5.60;;;4.88;;
79348;SDS011;68817;48.110;11.660;2023-06-26T12:16:23;6.10;;;5.10;;
79348;SDS011;68817;48.110;11.660;2023-06-26T12:18:48;5.95;;;4.80;;
79348;SDS011;68817;48.110;11.660;2023-06-26T12:24:16;6.20;;;5.28;;
79348;SDS011;68817;48.110;11.660;2023-06-26T12:26:42;6.20;;;5.60;;
79348;SDS011;68817;48.110;11.660;2023-06-26T12:29:09;6.70;;;5.10;;
79348;SDS011;68817;48.110;11.660;2023-06-26T12:31:39;5.80;;;5.20;;
79348;SDS011;68817;48.110;11.660;2023-06-26T12:34:11;6.78;;;5.15;;
79348;SDS011;68817;48.110;11.660;2023-06-26T12:36:40;6.20;;;5.38;;
79348;SDS011;68817;48.110;11.660;2023-06-26T12:39:08;6.05;;;5.45;;
79348;SDS011;68817;48.110;11.660;2023-06-26T12:41:35;5.95;;;5.35;;
79348;SDS011;68817;48.110;11.660;2023-06-26T12:44:00;5.28;;;4.78;;
79348;SDS011;68817;48.110;11.660;2023-06-26T12:46:34;5.50;;;4.90;;
79348;SDS011;68817;48.110;11.660;2023-06-26T12:49:00;5.60;;;5.00;;
79348;SDS011;68817;48.110;11.660;2023-06-26T12:51:25;5.63;;;5.13;;
79348;SDS011;68817;48.110;11.660;2023-06-26T12:53:52;5.90;;;5.03;;
79348;SDS011;68817;48.110;11.660;2023-06-26T12:56:18;5.63;;;5.13;;
79348;SDS011;68817;48.110;11.660;2023-06-26T12:58:45;6.40;;;5.43;;
79348;SDS011;68817;48.110;11.660;2023-06-26T13:01:10;8.30;;;5.22;;
79348;SDS011;68817;48.110;11.660;2023-06-26T13:03:38;5.50;;;5.00;;
79348;SDS011;68817;48.110;11.660;2023-06-26T13:06:04;5.30;;;4.80;;
79348;SDS011;68817;48.110;11.660;2023-06-26T13:08:29;6.05;;;5.10;;
79348;SDS011;68817;48.110;11.660;2023-06-26T13:10:54;5.68;;;5.07;;
79348;SDS011;68817;48.110;11.660;2023-06-26T13:13:20;6.32;;;5.63;;
79348;SDS011;68817;48.110;11.660;2023-06-26T13:15:45;6.53;;;4.93;;
79348;SDS011;68817;48.110;11.660;2023-06-26T13:18:11;6.30;;;5.30;;
79348;SDS011;68817;48.110;11.660;2023-06-26T13:20:36;6.82;;;6.07;;
79348;SDS011;68817;48.110;11.660;2023-06-26T13:23:01;6.03;;;4.55;;
79348;SDS011;68817;48.110;11.660;2023-06-26T13:25:27;6.88;;;5.22;;
79348;SDS011;68817;48.110;11.660;2023-06-26T13:27:52;6.82;;;5.30;;
79348;SDS011;68817;48.110;11.660;2023-06-26T13:30:18;6.10;;;5.25;;
79348;SDS011;68817;48.110;11.660;2023-06-26T13:32:43;6.65;;;5.45;;
79348;SDS011;68817;48.110;11.660;2023-06-26T13:35:09;7.20;;;5.47;;
79348;SDS011;68817;48.110;11.660;2023-06-26T13:37:38;7.35;;;5.72;;
79348;SDS011;68817;48.110;11.660;2023-06-26T13:40:05;7.35;;;5.53;;
79348;SDS011;68817;48.110;11.660;2023-06-26T13:42:32;6.03;;;5.43;;
79348;SDS011;68817;48.110;11.660;2023-06-26T13:44:57;6.57;;;4.95;;
79348;SDS011;68817;48.110;11.660;2023-06-26T13:47:23;7.55;;;5.72;;
79348;SDS011;68817;48.110;11.660;2023-06-26T13:49:51;6.90;;;6.03;;
79348;SDS011;68817;48.110;11.660;2023-06-26T13:52:16;6.68;;;5.97;;
79348;SDS011;68817;48.110;11.660;2023-06-26T13:54:42;6.30;;;5.70;;
79348;SDS011;68817;48.110;11.660;2023-06-26T13:57:08;6.32;;;5.70;;
79348;SDS011;68817;48.110;11.660;2023-06-26T13:59:33;6.25;;;5.65;;
79348;SDS011;68817;48.110;11.660;2023-06-26T14:01:59;8.32;;;5.32;;
79348;SDS011;68817;48.110;11.660;2023-06-26T14:04:25;7.18;;;5.78;;
79348;SDS011;68817;48.110;11.660;2023-06-26T14:06:51;6.50;;;5.85;;
79348;SDS011;68817;48.110;11.660;2023-06-26T14:09:16;7.90;;;6.00;;
79348;SDS011;68817;48.110;11.660;2023-06-26T14:11:42;7.28;;;5.78;;
79348;SDS011;68817;48.110;11.660;2023-06-26T14:14:08;6.47;;;5.85;;
79348;SDS011;68817;48.110;11.660;2023-06-26T14:16:34;6.50;;;5.80;;
79348;SDS011;68817;48.110;11.660;2023-06-26T14:18:59;8.73;;;6.68;;
79348;SDS011;68817;48.110;11.660;2023-06-26T14:21:25;7.38;;;5.93;;
79348;SDS011;68817;48.110;11.660;2023-06-26T14:23:51;7.15;;;5.63;;
79348;SDS011;68817;48.110;11.660;2023-06-26T14:26:16;7.90;;;6.50;;
79348;SDS011;68817;48.110;11.660;2023-06-26T14:28:41;6.68;;;5.90;;
79348;SDS011;68817;48.110;11.660;2023-06-26T14:31:07;6.10;;;5.50;;
79348;SDS011;68817;48.110;11.660;2023-06-26T14:33:32;7.07;;;6.30;;
79348;SDS011;68817;48.110;11.660;2023-06-26T14:35:58;7.95;;;6.00;;
79348;SDS011;68817;48.110;11.660;2023-06-26T14:38:23;6.18;;;5.57;;
79348;SDS011;68817;48.110;11.660;2023-06-26T14:40:48;6.32;;;5.72;;
79348;SDS011;68817;48.110;11.660;2023-06-26T14:43:14;8.27;;;5.63;;
79348;SDS011;68817;48.110;11.660;2023-06-26T14:45:39;6.68;;;5.70;;
79348;SDS011;68817;48.110;11.660;2023-06-26T14:48:05;6.80;;;6.10;;
79348;SDS011;68817;48.110;11.660;2023-06-26T14:50:30;6.90;;;5.60;;
79348;SDS011;68817;48.110;11.660;2023-06-26T14:52:56;6.20;;;5.60;;
79348;SDS011;68817;48.110;11.660;2023-06-26T14:55:21;6.63;;;5.90;;
79348;SDS011;68817;48.110;11.660;2023-06-26T14:57:46;7.18;;;5.97;;
79348;SDS011;68817;48.110;11.660;2023-06-26T15:00:12;6.25;;;5.65;;
79348;SDS011;68817;48.110;11.660;2023-06-26T15:02:38;6.78;;;5.88;;
79348;SDS011;68817;48.110;11.660;2023-06-26T15:05:03;7.10;;;5.80;;
79348;SDS011;68817;48.110;11.660;2023-06-26T15:07:29;7.13;;;5.43;;